sensor_id;sensor_type;location;lat;lon;timestamp;P1;durP1;ratioP1;P2;durP2;ratioP2
6394;SDS011;3230;42.588;23.358;2023-07-29T00:00:36;5.70;;;4.13;;
6394;SDS011;3230;42.588;23.358;2023-07-29T00:03:02;4.50;;;3.57;;
6394;SDS011;3230;42.588;23.358;2023-07-29T00:05:27;6.23;;;3.93;;
6394;SDS011;3230;42.588;23.358;2023-07-29T00:07:53;5.50;;;3.80;;
6394;SDS011;3230;42.588;23.358;2023-07-29T00:10:18;6.03;;;3.67;;
6394;SDS011;3230;42.588;23.358;2023-07-29T00:12:44;4.50;;;3.30;;
6394;SDS011;3230;42.588;23.358;2023-07-29T00:15:10;4.80;;;3.90;;
6394;SDS011;3230;42.588;23.358;2023-07-29T00:17:36;4.47;;;3.10;;
6394;SDS011;3230;42.588;23.358;2023-07-29T00:20:02;4.20;;;3.10;;
6394;SDS011;3230;42.588;23.358;2023-07-29T00:22:27;3.93;;;3.30;;
6394;SDS011;3230;42.588;23.358;2023-07-29T00:24:53;3.77;;;3.17;;
6394;SDS011;3230;42.588;23.358;2023-07-29T00:27:22;4.93;;;3.50;;
6394;SDS011;3230;42.588;23.358;2023-07-29T00:29:49;3.73;;;2.93;;
6394;SDS011;3230;42.588;23.358;2023-07-29T00:32:14;5.70;;;2.90;;
6394;SDS011;3230;42.588;23.358;2023-07-29T00:34:40;3.03;;;2.50;;
6394;SDS011;3230;42.588;23.358;2023-07-29T00:37:05;3.73;;;2.70;;
6394;SDS011;3230;42.588;23.358;2023-07-29T00:39:31;3.77;;;2.97;;
6394;SDS011;3230;42.588;23.358;2023-07-29T00:41:59;3.87;;;3.40;;
6394;SDS011;3230;42.588;23.358;2023-07-29T00:44:25;5.20;;;2.97;;
6394;SDS011;3230;42.588;23.358;2023-07-29T00:46:52;3.10;;;2.67;;
6394;SDS011;3230;42.588;23.358;2023-07-29T00:49:18;3.63;;;2.90;;
6394;SDS011;3230;42.588;23.358;2023-07-29T00:51:46;5.27;;;3.50;;
6394;SDS011;3230;42.588;23.358;2023-07-29T00:54:13;4.50;;;3.30;;
6394;SDS011;3230;42.588;23.358;2023-07-29T00:56:38;3.43;;;2.50;;
6394;SDS011;3230;42.588;23.358;2023-07-29T00:59:05;3.33;;;2.83;;
6394;SDS011;3230;42.588;23.358;2023-07-29T01:01:30;6.23;;;2.93;;
6394;SDS011;3230;42.588;23.358;2023-07-29T01:03:57;5.50;;;3.00;;
6394;SDS011;3230;42.588;23.358;2023-07-29T01:09:44;7.80;;;3.10;;
6394;SDS011;3230;42.588;23.358;2023-07-29T01:15:19;5.30;;;3.50;;
6394;SDS011;3230;42.588;23.358;2023-07-29T01:17:55;5.80;;;3.40;;
6394;SDS011;3230;42.588;23.358;2023-07-29T01:20:24;6.43;;;3.33;;
6394;SDS011;3230;42.588;23.358;2023-07-29T01:22:50;5.70;;;3.40;;
6394;SDS011;3230;42.588;23.358;2023-07-29T01:25:16;8.03;;;3.20;;
6394;SDS011;3230;42.588;23.358;2023-07-29T01:27:42;3.90;;;3.20;;
6394;SDS011;3230;42.588;23.358;2023-07-29T01:30:10;6.83;;;3.20;;
6394;SDS011;3230;42.588;23.358;2023-07-29T01:32:37;4.13;;;3.30;;
6394;SDS011;3230;42.588;23.358;2023-07-29T01:38:17;4.07;;;2.97;;
6394;SDS011;3230;42.588;23.358;2023-07-29T01:40:45;3.93;;;2.93;;
6394;SDS011;3230;42.588;23.358;2023-07-29T01:43:13;4.43;;;2.80;;
6394;SDS011;3230;42.588;23.358;2023-07-29T01:45:39;4.83;;;3.00;;
6394;SDS011;3230;42.588;23.358;2023-07-29T01:48:05;4.07;;;3.20;;
6394;SDS011;3230;42.588;23.358;2023-07-29T01:50:32;3.90;;;3.13;;
6394;SDS011;3230;42.588;23.358;2023-07-29T01:52:57;4.90;;;3.40;;
6394;SDS011;3230;42.588;23.358;2023-07-29T01:55:23;3.90;;;3.10;;
6394;SDS011;3230;42.588;23.358;2023-07-29T01:57:49;4.03;;;3.20;;
6394;SDS011;3230;42.588;23.358;2023-07-29T02:00:16;7.53;;;3.30;;
6394;SDS011;3230;42.588;23.358;2023-07-29T02:02:42;4.37;;;3.33;;
6394;SDS011;3230;42.588;23.358;2023-07-29T02:05:07;4.20;;;3.50;;
6394;SDS011;3230;42.588;23.358;2023-07-29T02:07:32;3.40;;;3.00;;
6394;SDS011;3230;42.588;23.358;2023-07-29T02:09:58;4.73;;;3.07;;
6394;SDS011;3230;42.588;23.358;2023-07-29T02:12:23;11.80;;;3.30;;
6394;SDS011;3230;42.588;23.358;2023-07-29T02:14:49;4.13;;;3.00;;
6394;SDS011;3230;42.588;23.358;2023-07-29T02:17:14;3.80;;;2.90;;
6394;SDS011;3230;42.588;23.358;2023-07-29T02:19:39;3.77;;;2.70;;
6394;SDS011;3230;42.588;23.358;2023-07-29T02:22:05;3.73;;;2.73;;
6394;SDS011;3230;42.588;23.358;2023-07-29T02:24:30;4.77;;;3.63;;
6394;SDS011;3230;42.588;23.358;2023-07-29T02:26:56;3.30;;;2.77;;
6394;SDS011;3230;42.588;23.358;2023-07-29T02:29:21;4.53;;;3.20;;
6394;SDS011;3230;42.588;23.358;2023-07-29T02:31:47;4.60;;;3.13;;
6394;SDS011;3230;42.588;23.358;2023-07-29T02:34:12;3.90;;;2.90;;
6394;SDS011;3230;42.588;23.358;2023-07-29T02:36:38;5.30;;;2.87;;
6394;SDS011;3230;42.588;23.358;2023-07-29T02:39:04;5.60;;;3.70;;
6394;SDS011;3230;42.588;23.358;2023-07-29T02:41:30;4.50;;;3.40;;
6394;SDS011;3230;42.588;23.358;2023-07-29T02:43:55;5.27;;;3.97;;
6394;SDS011;3230;42.588;23.358;2023-07-29T02:46:20;3.83;;;2.90;;
6394;SDS011;3230;42.588;23.358;2023-07-29T02:48:46;4.60;;;2.83;;
6394;SDS011;3230;42.588;23.358;2023-07-29T02:51:12;5.70;;;3.00;;
6394;SDS011;3230;42.588;23.358;2023-07-29T02:53:37;7.50;;;3.30;;
6394;SDS011;3230;42.588;23.358;2023-07-29T02:56:03;7.83;;;3.43;;
6394;SDS011;3230;42.588;23.358;2023-07-29T02:58:29;4.47;;;2.93;;
6394;SDS011;3230;42.588;23.358;2023-07-29T03:01:02;4.80;;;3.40;;
6394;SDS011;3230;42.588;23.358;2023-07-29T03:03:29;5.50;;;3.50;;
6394;SDS011;3230;42.588;23.358;2023-07-29T03:06:04;6.43;;;3.43;;
6394;SDS011;3230;42.588;23.358;2023-07-29T03:08:34;4.03;;;3.13;;
6394;SDS011;3230;42.588;23.358;2023-07-29T03:11:07;6.60;;;3.57;;
6394;SDS011;3230;42.588;23.358;2023-07-29T03:13:35;4.40;;;3.23;;
6394;SDS011;3230;42.588;23.358;2023-07-29T03:16:07;5.47;;;3.73;;
6394;SDS011;3230;42.588;23.358;2023-07-29T03:18:33;7.40;;;3.37;;
6394;SDS011;3230;42.588;23.358;2023-07-29T03:20:59;5.60;;;3.13;;
6394;SDS011;3230;42.588;23.358;2023-07-29T03:23:25;10.30;;;3.13;;
6394;SDS011;3230;42.588;23.358;2023-07-29T03:25:52;5.63;;;3.07;;
6394;SDS011;3230;42.588;23.358;2023-07-29T03:28:22;4.13;;;3.13;;
6394;SDS011;3230;42.588;23.358;2023-07-29T03:30:48;5.00;;;3.27;;
6394;SDS011;3230;42.588;23.358;2023-07-29T03:33:14;7.73;;;3.50;;
6394;SDS011;3230;42.588;23.358;2023-07-29T03:35:39;5.57;;;3.43;;
6394;SDS011;3230;42.588;23.358;2023-07-29T03:38:05;4.00;;;3.10;;
6394;SDS011;3230;42.588;23.358;2023-07-29T03:40:30;3.97;;;3.23;;
6394;SDS011;3230;42.588;23.358;2023-07-29T03:42:55;10.43;;;3.13;;
6394;SDS011;3230;42.588;23.358;2023-07-29T03:45:21;5.73;;;3.43;;
6394;SDS011;3230;42.588;23.358;2023-07-29T03:47:46;4.90;;;3.10;;
6394;SDS011;3230;42.588;23.358;2023-07-29T03:50:12;4.47;;;2.90;;
6394;SDS011;3230;42.588;23.358;2023-07-29T03:52:37;4.43;;;3.10;;
6394;SDS011;3230;42.588;23.358;2023-07-29T03:55:02;6.43;;;3.00;;
6394;SDS011;3230;42.588;23.358;2023-07-29T03:57:28;3.60;;;3.10;;
6394;SDS011;3230;42.588;23.358;2023-07-29T03:59:54;13.90;;;3.30;;
6394;SDS011;3230;42.588;23.358;2023-07-29T04:02:20;5.40;;;3.37;;
6394;SDS011;3230;42.588;23.358;2023-07-29T04:04:45;3.50;;;3.10;;
6394;SDS011;3230;42.588;23.358;2023-07-29T04:07:12;5.47;;;2.90;;
6394;SDS011;3230;42.588;23.358;2023-07-29T04:09:38;5.40;;;3.40;;
6394;SDS011;3230;42.588;23.358;2023-07-29T04:12:04;5.80;;;2.70;;
6394;SDS011;3230;42.588;23.358;2023-07-29T04:14:29;7.40;;;3.33;;
6394;SDS011;3230;42.588;23.358;2023-07-29T04:16:55;8.50;;;4.17;;
6394;SDS011;3230;42.588;23.358;2023-07-29T04:19:20;10.00;;;4.10;;
6394;SDS011;3230;42.588;23.358;2023-07-29T04:21:46;3.70;;;3.30;;
6394;SDS011;3230;42.588;23.358;2023-07-29T04:24:12;6.10;;;3.80;;
6394;SDS011;3230;42.588;23.358;2023-07-29T04:26:38;4.07;;;2.90;;
6394;SDS011;3230;42.588;23.358;2023-07-29T04:29:04;5.50;;;3.43;;
6394;SDS011;3230;42.588;23.358;2023-07-29T04:31:29;9.60;;;3.80;;
6394;SDS011;3230;42.588;23.358;2023-07-29T04:33:55;6.57;;;3.63;;
6394;SDS011;3230;42.588;23.358;2023-07-29T04:36:21;3.20;;;2.80;;
6394;SDS011;3230;42.588;23.358;2023-07-29T04:38:47;3.33;;;2.93;;
6394;SDS011;3230;42.588;23.358;2023-07-29T04:41:12;10.20;;;3.00;;
6394;SDS011;3230;42.588;23.358;2023-07-29T04:43:38;4.50;;;3.23;;
6394;SDS011;3230;42.588;23.358;2023-07-29T04:46:06;5.90;;;3.10;;
6394;SDS011;3230;42.588;23.358;2023-07-29T04:48:32;5.77;;;3.20;;
6394;SDS011;3230;42.588;23.358;2023-07-29T04:50:58;4.93;;;2.80;;
6394;SDS011;3230;42.588;23.358;2023-07-29T04:53:23;5.70;;;2.80;;
6394;SDS011;3230;42.588;23.358;2023-07-29T04:55:49;10.27;;;3.10;;
6394;SDS011;3230;42.588;23.358;2023-07-29T04:58:14;3.70;;;2.67;;
6394;SDS011;3230;42.588;23.358;2023-07-29T05:00:39;7.20;;;2.97;;
6394;SDS011;3230;42.588;23.358;2023-07-29T05:03:05;3.00;;;2.60;;
6394;SDS011;3230;42.588;23.358;2023-07-29T05:05:31;3.53;;;2.97;;
6394;SDS011;3230;42.588;23.358;2023-07-29T05:07:56;5.20;;;2.87;;
6394;SDS011;3230;42.588;23.358;2023-07-29T05:10:22;20.30;;;4.10;;
6394;SDS011;3230;42.588;23.358;2023-07-29T05:12:47;6.73;;;3.43;;
6394;SDS011;3230;42.588;23.358;2023-07-29T05:15:12;3.27;;;2.63;;
6394;SDS011;3230;42.588;23.358;2023-07-29T05:17:38;3.80;;;2.60;;
6394;SDS011;3230;42.588;23.358;2023-07-29T05:20:04;3.70;;;2.80;;
6394;SDS011;3230;42.588;23.358;2023-07-29T05:22:29;3.27;;;2.60;;
6394;SDS011;3230;42.588;23.358;2023-07-29T05:24:55;2.90;;;2.60;;
6394;SDS011;3230;42.588;23.358;2023-07-29T05:27:24;3.17;;;2.87;;
6394;SDS011;3230;42.588;23.358;2023-07-29T05:29:49;4.63;;;2.80;;
6394;SDS011;3230;42.588;23.358;2023-07-29T05:32:15;3.00;;;2.70;;
6394;SDS011;3230;42.588;23.358;2023-07-29T05:34:40;3.30;;;3.00;;
6394;SDS011;3230;42.588;23.358;2023-07-29T05:37:05;5.07;;;3.00;;
6394;SDS011;3230;42.588;23.358;2023-07-29T05:39:31;10.53;;;3.90;;
6394;SDS011;3230;42.588;23.358;2023-07-29T05:41:57;5.73;;;3.60;;
6394;SDS011;3230;42.588;23.358;2023-07-29T05:44:23;7.70;;;3.77;;
6394;SDS011;3230;42.588;23.358;2023-07-29T05:46:48;11.83;;;5.13;;
6394;SDS011;3230;42.588;23.358;2023-07-29T05:49:14;7.80;;;3.57;;
6394;SDS011;3230;42.588;23.358;2023-07-29T05:51:39;9.20;;;3.87;;
6394;SDS011;3230;42.588;23.358;2023-07-29T05:54:04;11.40;;;4.00;;
6394;SDS011;3230;42.588;23.358;2023-07-29T05:56:30;9.70;;;4.10;;
6394;SDS011;3230;42.588;23.358;2023-07-29T05:58:56;4.73;;;3.43;;
6394;SDS011;3230;42.588;23.358;2023-07-29T06:01:22;4.97;;;4.10;;
6394;SDS011;3230;42.588;23.358;2023-07-29T06:03:48;4.73;;;3.70;;
6394;SDS011;3230;42.588;23.358;2023-07-29T06:06:13;6.90;;;3.77;;
6394;SDS011;3230;42.588;23.358;2023-07-29T06:08:38;8.17;;;3.80;;
6394;SDS011;3230;42.588;23.358;2023-07-29T06:11:04;5.63;;;3.90;;
6394;SDS011;3230;42.588;23.358;2023-07-29T06:13:31;6.17;;;3.90;;
6394;SDS011;3230;42.588;23.358;2023-07-29T06:15:59;5.97;;;3.77;;
6394;SDS011;3230;42.588;23.358;2023-07-29T06:18:25;5.20;;;3.70;;
6394;SDS011;3230;42.588;23.358;2023-07-29T06:20:50;6.50;;;3.50;;
6394;SDS011;3230;42.588;23.358;2023-07-29T06:23:16;5.30;;;3.37;;
6394;SDS011;3230;42.588;23.358;2023-07-29T06:25:42;11.53;;;4.00;;
6394;SDS011;3230;42.588;23.358;2023-07-29T06:28:08;10.90;;;3.70;;
6394;SDS011;3230;42.588;23.358;2023-07-29T06:30:34;5.47;;;3.50;;
6394;SDS011;3230;42.588;23.358;2023-07-29T06:33:00;7.10;;;3.50;;
6394;SDS011;3230;42.588;23.358;2023-07-29T06:35:26;4.50;;;3.80;;
6394;SDS011;3230;42.588;23.358;2023-07-29T06:37:51;4.10;;;3.53;;
6394;SDS011;3230;42.588;23.358;2023-07-29T06:40:16;4.70;;;3.43;;
6394;SDS011;3230;42.588;23.358;2023-07-29T06:42:42;3.60;;;3.27;;
6394;SDS011;3230;42.588;23.358;2023-07-29T06:45:07;5.90;;;3.60;;
6394;SDS011;3230;42.588;23.358;2023-07-29T06:47:33;5.40;;;3.70;;
6394;SDS011;3230;42.588;23.358;2023-07-29T06:49:59;3.57;;;3.27;;
6394;SDS011;3230;42.588;23.358;2023-07-29T06:52:24;7.13;;;3.23;;
6394;SDS011;3230;42.588;23.358;2023-07-29T06:54:49;4.30;;;3.70;;
6394;SDS011;3230;42.588;23.358;2023-07-29T06:57:15;4.10;;;3.07;;
6394;SDS011;3230;42.588;23.358;2023-07-29T06:59:40;4.00;;;3.13;;
6394;SDS011;3230;42.588;23.358;2023-07-29T07:02:06;3.70;;;3.40;;
6394;SDS011;3230;42.588;23.358;2023-07-29T07:04:32;3.43;;;3.13;;
6394;SDS011;3230;42.588;23.358;2023-07-29T07:06:57;3.87;;;3.57;;
6394;SDS011;3230;42.588;23.358;2023-07-29T07:09:23;4.10;;;3.20;;
6394;SDS011;3230;42.588;23.358;2023-07-29T07:11:48;3.90;;;3.50;;
6394;SDS011;3230;42.588;23.358;2023-07-29T07:14:13;7.13;;;3.80;;
6394;SDS011;3230;42.588;23.358;2023-07-29T07:16:39;3.87;;;3.57;;
6394;SDS011;3230;42.588;23.358;2023-07-29T07:19:04;3.97;;;3.67;;
6394;SDS011;3230;42.588;23.358;2023-07-29T07:21:30;3.73;;;3.43;;
6394;SDS011;3230;42.588;23.358;2023-07-29T07:23:57;4.93;;;3.40;;
6394;SDS011;3230;42.588;23.358;2023-07-29T07:26:23;6.83;;;3.40;;
6394;SDS011;3230;42.588;23.358;2023-07-29T07:28:48;4.30;;;3.10;;
6394;SDS011;3230;42.588;23.358;2023-07-29T07:31:13;5.57;;;3.70;;
6394;SDS011;3230;42.588;23.358;2023-07-29T07:33:39;4.20;;;3.70;;
6394;SDS011;3230;42.588;23.358;2023-07-29T07:36:04;5.60;;;3.47;;
6394;SDS011;3230;42.588;23.358;2023-07-29T07:38:30;3.70;;;3.40;;
6394;SDS011;3230;42.588;23.358;2023-07-29T07:40:55;6.07;;;3.73;;
6394;SDS011;3230;42.588;23.358;2023-07-29T07:43:21;29.63;;;5.10;;
6394;SDS011;3230;42.588;23.358;2023-07-29T07:45:48;3.83;;;3.40;;
6394;SDS011;3230;42.588;23.358;2023-07-29T07:48:14;3.50;;;3.20;;
6394;SDS011;3230;42.588;23.358;2023-07-29T07:50:39;4.10;;;2.90;;
6394;SDS011;3230;42.588;23.358;2023-07-29T07:53:05;3.53;;;3.23;;
6394;SDS011;3230;42.588;23.358;2023-07-29T07:55:30;3.50;;;3.20;;
6394;SDS011;3230;42.588;23.358;2023-07-29T07:57:56;3.60;;;3.30;;
6394;SDS011;3230;42.588;23.358;2023-07-29T08:00:21;5.30;;;3.63;;
6394;SDS011;3230;42.588;23.358;2023-07-29T08:02:47;5.13;;;3.43;;
6394;SDS011;3230;42.588;23.358;2023-07-29T08:05:12;6.30;;;3.40;;
6394;SDS011;3230;42.588;23.358;2023-07-29T08:07:38;7.13;;;3.77;;
6394;SDS011;3230;42.588;23.358;2023-07-29T08:10:03;4.43;;;3.27;;
6394;SDS011;3230;42.588;23.358;2023-07-29T08:12:29;3.50;;;3.20;;
6394;SDS011;3230;42.588;23.358;2023-07-29T08:14:54;4.70;;;3.50;;
6394;SDS011;3230;42.588;23.358;2023-07-29T08:17:19;4.93;;;3.37;;
6394;SDS011;3230;42.588;23.358;2023-07-29T08:19:45;4.73;;;3.30;;
6394;SDS011;3230;42.588;23.358;2023-07-29T08:22:10;9.73;;;3.10;;
6394;SDS011;3230;42.588;23.358;2023-07-29T08:24:36;3.93;;;3.40;;
6394;SDS011;3230;42.588;23.358;2023-07-29T08:27:01;7.13;;;3.60;;
6394;SDS011;3230;42.588;23.358;2023-07-29T08:29:26;5.43;;;3.30;;
6394;SDS011;3230;42.588;23.358;2023-07-29T08:31:52;3.77;;;2.80;;
6394;SDS011;3230;42.588;23.358;2023-07-29T08:34:17;3.17;;;2.83;;
6394;SDS011;3230;42.588;23.358;2023-07-29T08:36:43;4.17;;;3.10;;
6394;SDS011;3230;42.588;23.358;2023-07-29T08:39:08;3.23;;;2.93;;
6394;SDS011;3230;42.588;23.358;2023-07-29T08:41:43;3.87;;;3.33;;
6394;SDS011;3230;42.588;23.358;2023-07-29T08:44:21;4.17;;;3.17;;
6394;SDS011;3230;42.588;23.358;2023-07-29T08:46:51;4.87;;;2.90;;
6394;SDS011;3230;42.588;23.358;2023-07-29T08:49:18;3.70;;;2.93;;
6394;SDS011;3230;42.588;23.358;2023-07-29T08:51:48;4.80;;;2.90;;
6394;SDS011;3230;42.588;23.358;2023-07-29T08:54:14;2.70;;;2.50;;
6394;SDS011;3230;42.588;23.358;2023-07-29T08:56:41;2.97;;;2.77;;
6394;SDS011;3230;42.588;23.358;2023-07-29T08:59:08;3.27;;;2.97;;
6394;SDS011;3230;42.588;23.358;2023-07-29T09:01:33;3.03;;;2.30;;
6394;SDS011;3230;42.588;23.358;2023-07-29T09:03:59;2.70;;;2.50;;
6394;SDS011;3230;42.588;23.358;2023-07-29T09:06:25;6.00;;;3.20;;
6394;SDS011;3230;42.588;23.358;2023-07-29T09:08:52;3.30;;;2.80;;
6394;SDS011;3230;42.588;23.358;2023-07-29T09:11:19;2.80;;;2.60;;
6394;SDS011;3230;42.588;23.358;2023-07-29T09:13:45;4.87;;;3.10;;
6394;SDS011;3230;42.588;23.358;2023-07-29T09:16:11;4.20;;;2.60;;
6394;SDS011;3230;42.588;23.358;2023-07-29T09:18:37;4.20;;;3.00;;
6394;SDS011;3230;42.588;23.358;2023-07-29T09:21:02;6.43;;;3.00;;
6394;SDS011;3230;42.588;23.358;2023-07-29T09:23:28;4.50;;;2.87;;
6394;SDS011;3230;42.588;23.358;2023-07-29T09:26:00;7.50;;;3.50;;
6394;SDS011;3230;42.588;23.358;2023-07-29T09:28:32;4.00;;;3.40;;
6394;SDS011;3230;42.588;23.358;2023-07-29T09:30:59;4.87;;;3.30;;
6394;SDS011;3230;42.588;23.358;2023-07-29T09:33:25;6.20;;;3.10;;
6394;SDS011;3230;42.588;23.358;2023-07-29T09:35:51;7.17;;;2.80;;
6394;SDS011;3230;42.588;23.358;2023-07-29T09:38:17;4.60;;;2.70;;
6394;SDS011;3230;42.588;23.358;2023-07-29T09:40:42;4.00;;;2.67;;
6394;SDS011;3230;42.588;23.358;2023-07-29T09:43:10;7.47;;;2.60;;
6394;SDS011;3230;42.588;23.358;2023-07-29T09:45:36;38.77;;;4.10;;
6394;SDS011;3230;42.588;23.358;2023-07-29T09:48:02;4.77;;;2.60;;
6394;SDS011;3230;42.588;23.358;2023-07-29T09:50:30;3.60;;;2.60;;
6394;SDS011;3230;42.588;23.358;2023-07-29T09:52:56;5.23;;;2.80;;
6394;SDS011;3230;42.588;23.358;2023-07-29T09:55:25;4.03;;;2.47;;
6394;SDS011;3230;42.588;23.358;2023-07-29T09:57:58;6.90;;;2.80;;
6394;SDS011;3230;42.588;23.358;2023-07-29T10:00:29;3.47;;;2.07;;
6394;SDS011;3230;42.588;23.358;2023-07-29T10:02:55;3.60;;;1.77;;
6394;SDS011;3230;42.588;23.358;2023-07-29T10:05:22;2.97;;;1.70;;
6394;SDS011;3230;42.588;23.358;2023-07-29T10:07:51;3.10;;;1.70;;
6394;SDS011;3230;42.588;23.358;2023-07-29T10:10:16;8.80;;;1.87;;
6394;SDS011;3230;42.588;23.358;2023-07-29T10:12:42;3.23;;;2.17;;
6394;SDS011;3230;42.588;23.358;2023-07-29T10:15:08;3.97;;;2.00;;
6394;SDS011;3230;42.588;23.358;2023-07-29T10:17:34;4.87;;;1.97;;
6394;SDS011;3230;42.588;23.358;2023-07-29T10:20:01;2.57;;;1.80;;
6394;SDS011;3230;42.588;23.358;2023-07-29T10:22:32;8.33;;;3.77;;
6394;SDS011;3230;42.588;23.358;2023-07-29T10:25:02;4.03;;;1.77;;
6394;SDS011;3230;42.588;23.358;2023-07-29T10:27:31;6.47;;;1.87;;
6394;SDS011;3230;42.588;23.358;2023-07-29T10:30:06;2.60;;;1.80;;
6394;SDS011;3230;42.588;23.358;2023-07-29T10:32:32;3.37;;;1.50;;
6394;SDS011;3230;42.588;23.358;2023-07-29T10:34:58;2.57;;;1.70;;
6394;SDS011;3230;42.588;23.358;2023-07-29T10:37:24;3.50;;;1.50;;
6394;SDS011;3230;42.588;23.358;2023-07-29T10:39:53;2.63;;;1.57;;
6394;SDS011;3230;42.588;23.358;2023-07-29T10:42:19;2.03;;;1.57;;
6394;SDS011;3230;42.588;23.358;2023-07-29T10:44:45;1.80;;;1.40;;
6394;SDS011;3230;42.588;23.358;2023-07-29T10:47:21;2.53;;;1.47;;
6394;SDS011;3230;42.588;23.358;2023-07-29T10:49:52;1.70;;;1.13;;
6394;SDS011;3230;42.588;23.358;2023-07-29T10:52:29;2.30;;;1.40;;
6394;SDS011;3230;42.588;23.358;2023-07-29T10:55:01;1.80;;;1.30;;
6394;SDS011;3230;42.588;23.358;2023-07-29T10:57:38;1.50;;;1.30;;
6394;SDS011;3230;42.588;23.358;2023-07-29T11:00:06;2.03;;;1.40;;
6394;SDS011;3230;42.588;23.358;2023-07-29T11:02:36;2.90;;;1.50;;
6394;SDS011;3230;42.588;23.358;2023-07-29T11:05:06;2.10;;;1.30;;
6394;SDS011;3230;42.588;23.358;2023-07-29T11:07:43;3.33;;;1.60;;
6394;SDS011;3230;42.588;23.358;2023-07-29T11:10:11;2.73;;;1.83;;
6394;SDS011;3230;42.588;23.358;2023-07-29T11:17:55;19.30;;;2.70;;
6394;SDS011;3230;42.588;23.358;2023-07-29T11:20:23;7.23;;;1.50;;
6394;SDS011;3230;42.588;23.358;2023-07-29T11:22:52;3.87;;;1.73;;
6394;SDS011;3230;42.588;23.358;2023-07-29T11:25:18;2.13;;;1.73;;
6394;SDS011;3230;42.588;23.358;2023-07-29T11:27:45;7.00;;;2.00;;
6394;SDS011;3230;42.588;23.358;2023-07-29T11:30:11;2.07;;;1.70;;
6394;SDS011;3230;42.588;23.358;2023-07-29T11:32:38;2.73;;;2.27;;
6394;SDS011;3230;42.588;23.358;2023-07-29T11:35:06;2.90;;;1.67;;
6394;SDS011;3230;42.588;23.358;2023-07-29T11:37:33;3.03;;;1.97;;
6394;SDS011;3230;42.588;23.358;2023-07-29T11:39:59;7.67;;;2.97;;
6394;SDS011;3230;42.588;23.358;2023-07-29T11:42:26;16.03;;;2.47;;
6394;SDS011;3230;42.588;23.358;2023-07-29T11:44:53;3.00;;;2.10;;
6394;SDS011;3230;42.588;23.358;2023-07-29T11:47:19;3.90;;;2.13;;
6394;SDS011;3230;42.588;23.358;2023-07-29T11:49:44;3.27;;;2.23;;
6394;SDS011;3230;42.588;23.358;2023-07-29T11:52:10;2.63;;;2.30;;
6394;SDS011;3230;42.588;23.358;2023-07-29T11:54:36;4.10;;;2.30;;
6394;SDS011;3230;42.588;23.358;2023-07-29T11:57:04;2.50;;;2.07;;
6394;SDS011;3230;42.588;23.358;2023-07-29T11:59:32;4.90;;;2.27;;
6394;SDS011;3230;42.588;23.358;2023-07-29T12:02:00;2.93;;;2.30;;
6394;SDS011;3230;42.588;23.358;2023-07-29T12:04:26;2.90;;;2.20;;
6394;SDS011;3230;42.588;23.358;2023-07-29T12:06:52;2.53;;;2.20;;
6394;SDS011;3230;42.588;23.358;2023-07-29T12:09:18;3.30;;;1.90;;
6394;SDS011;3230;42.588;23.358;2023-07-29T12:11:43;2.03;;;1.83;;
6394;SDS011;3230;42.588;23.358;2023-07-29T12:14:09;2.73;;;2.10;;
6394;SDS011;3230;42.588;23.358;2023-07-29T12:16:44;2.10;;;1.70;;
6394;SDS011;3230;42.588;23.358;2023-07-29T12:19:13;3.77;;;2.37;;
6394;SDS011;3230;42.588;23.358;2023-07-29T12:21:39;21.30;;;2.63;;
6394;SDS011;3230;42.588;23.358;2023-07-29T12:24:06;3.03;;;2.00;;
6394;SDS011;3230;42.588;23.358;2023-07-29T12:26:32;13.07;;;2.00;;
6394;SDS011;3230;42.588;23.358;2023-07-29T12:28:58;17.60;;;2.83;;
6394;SDS011;3230;42.588;23.358;2023-07-29T12:31:30;2.50;;;1.97;;
6394;SDS011;3230;42.588;23.358;2023-07-29T12:33:59;3.87;;;2.10;;
6394;SDS011;3230;42.588;23.358;2023-07-29T12:36:44;2.87;;;2.27;;
6394;SDS011;3230;42.588;23.358;2023-07-29T12:39:17;4.50;;;2.40;;
6394;SDS011;3230;42.588;23.358;2023-07-29T12:41:47;2.50;;;2.20;;
6394;SDS011;3230;42.588;23.358;2023-07-29T12:44:14;3.50;;;2.40;;
6394;SDS011;3230;42.588;23.358;2023-07-29T12:46:39;2.17;;;1.97;;
6394;SDS011;3230;42.588;23.358;2023-07-29T12:49:05;6.50;;;2.00;;
6394;SDS011;3230;42.588;23.358;2023-07-29T12:51:31;3.87;;;2.30;;
6394;SDS011;3230;42.588;23.358;2023-07-29T12:53:57;3.60;;;1.93;;
6394;SDS011;3230;42.588;23.358;2023-07-29T12:56:22;3.73;;;2.00;;
6394;SDS011;3230;42.588;23.358;2023-07-29T12:58:47;6.17;;;1.83;;
6394;SDS011;3230;42.588;23.358;2023-07-29T13:01:13;2.23;;;1.83;;
6394;SDS011;3230;42.588;23.358;2023-07-29T13:03:42;4.23;;;2.17;;
6394;SDS011;3230;42.588;23.358;2023-07-29T13:06:08;3.70;;;2.60;;
6394;SDS011;3230;42.588;23.358;2023-07-29T13:08:34;8.30;;;2.33;;
6394;SDS011;3230;42.588;23.358;2023-07-29T13:10:59;5.43;;;2.40;;
6394;SDS011;3230;42.588;23.358;2023-07-29T13:13:25;2.50;;;2.23;;
6394;SDS011;3230;42.588;23.358;2023-07-29T13:15:50;3.17;;;2.30;;
6394;SDS011;3230;42.588;23.358;2023-07-29T13:18:16;2.80;;;2.30;;
6394;SDS011;3230;42.588;23.358;2023-07-29T13:20:41;2.70;;;2.23;;
6394;SDS011;3230;42.588;23.358;2023-07-29T13:23:07;4.97;;;2.40;;
6394;SDS011;3230;42.588;23.358;2023-07-29T13:25:32;8.70;;;2.60;;
6394;SDS011;3230;42.588;23.358;2023-07-29T13:27:57;2.60;;;2.30;;
6394;SDS011;3230;42.588;23.358;2023-07-29T13:30:23;4.40;;;2.23;;
6394;SDS011;3230;42.588;23.358;2023-07-29T13:32:50;2.60;;;1.97;;
6394;SDS011;3230;42.588;23.358;2023-07-29T13:35:16;2.53;;;2.10;;
6394;SDS011;3230;42.588;23.358;2023-07-29T13:37:41;2.30;;;2.00;;
6394;SDS011;3230;42.588;23.358;2023-07-29T13:40:07;4.70;;;1.90;;
6394;SDS011;3230;42.588;23.358;2023-07-29T13:42:32;2.13;;;1.80;;
6394;SDS011;3230;42.588;23.358;2023-07-29T13:44:58;2.50;;;2.10;;
6394;SDS011;3230;42.588;23.358;2023-07-29T13:47:23;3.13;;;2.00;;
6394;SDS011;3230;42.588;23.358;2023-07-29T13:49:49;1.90;;;1.70;;
6394;SDS011;3230;42.588;23.358;2023-07-29T13:52:14;2.20;;;1.80;;
6394;SDS011;3230;42.588;23.358;2023-07-29T13:54:40;2.50;;;2.20;;
6394;SDS011;3230;42.588;23.358;2023-07-29T13:57:05;3.33;;;2.33;;
6394;SDS011;3230;42.588;23.358;2023-07-29T13:59:31;2.40;;;2.07;;
6394;SDS011;3230;42.588;23.358;2023-07-29T14:01:57;2.27;;;2.00;;
6394;SDS011;3230;42.588;23.358;2023-07-29T14:04:22;4.67;;;2.10;;
6394;SDS011;3230;42.588;23.358;2023-07-29T14:06:48;2.70;;;2.20;;
6394;SDS011;3230;42.588;23.358;2023-07-29T14:09:13;4.07;;;2.17;;
6394;SDS011;3230;42.588;23.358;2023-07-29T14:11:39;2.40;;;2.00;;
6394;SDS011;3230;42.588;23.358;2023-07-29T14:14:04;2.77;;;2.20;;
6394;SDS011;3230;42.588;23.358;2023-07-29T14:16:29;4.33;;;2.20;;
6394;SDS011;3230;42.588;23.358;2023-07-29T14:18:55;2.50;;;2.17;;
6394;SDS011;3230;42.588;23.358;2023-07-29T14:21:20;2.80;;;2.30;;
6394;SDS011;3230;42.588;23.358;2023-07-29T14:23:46;5.63;;;2.37;;
6394;SDS011;3230;42.588;23.358;2023-07-29T14:26:11;8.47;;;2.23;;
6394;SDS011;3230;42.588;23.358;2023-07-29T14:28:36;8.40;;;2.43;;
6394;SDS011;3230;42.588;23.358;2023-07-29T14:31:02;2.80;;;2.20;;
6394;SDS011;3230;42.588;23.358;2023-07-29T14:33:27;6.23;;;2.20;;
6394;SDS011;3230;42.588;23.358;2023-07-29T14:35:53;2.73;;;2.40;;
6394;SDS011;3230;42.588;23.358;2023-07-29T14:38:19;2.53;;;2.27;;
6394;SDS011;3230;42.588;23.358;2023-07-29T14:40:47;3.20;;;2.10;;
6394;SDS011;3230;42.588;23.358;2023-07-29T14:43:13;8.57;;;2.20;;
6394;SDS011;3230;42.588;23.358;2023-07-29T14:45:38;5.73;;;2.47;;
6394;SDS011;3230;42.588;23.358;2023-07-29T14:48:04;6.63;;;2.27;;
6394;SDS011;3230;42.588;23.358;2023-07-29T14:50:29;2.40;;;2.20;;
6394;SDS011;3230;42.588;23.358;2023-07-29T14:52:55;5.57;;;2.80;;
6394;SDS011;3230;42.588;23.358;2023-07-29T14:55:20;5.13;;;2.70;;
6394;SDS011;3230;42.588;23.358;2023-07-29T14:57:46;6.63;;;2.80;;
6394;SDS011;3230;42.588;23.358;2023-07-29T15:00:12;4.20;;;3.00;;
6394;SDS011;3230;42.588;23.358;2023-07-29T15:02:38;5.70;;;2.73;;
6394;SDS011;3230;42.588;23.358;2023-07-29T15:05:05;4.07;;;2.30;;
6394;SDS011;3230;42.588;23.358;2023-07-29T15:07:30;3.00;;;2.10;;
6394;SDS011;3230;42.588;23.358;2023-07-29T15:09:56;3.40;;;2.50;;